sensor_id;sensor_type;location;lat;lon;timestamp;temperature;humidity
16867;DHT22;8550;52.596;13.320;2022-12-10T00:02:22;-0.90;99.90
16867;DHT22;8550;52.596;13.320;2022-12-10T00:07:25;-0.90;99.90
16867;DHT22;8550;52.596;13.320;2022-12-10T00:12:27;-0.90;99.90
16867;DHT22;8550;52.596;13.320;2022-12-10T00:17:29;-0.90;99.90
16867;DHT22;8550;52.596;13.320;2022-12-10T00:22:32;-0.90;99.90
16867;DHT22;8550;52.596;13.320;2022-12-10T00:27:34;-0.90;99.90
16867;DHT22;8550;52.596;13.320;2022-12-10T00:32:36;-0.80;99.90
16867;DHT22;8550;52.596;13.320;2022-12-10T00:37:40;-0.70;99.90
16867;DHT22;8550;52.596;13.320;2022-12-10T00:42:41;-0.70;99.90
16867;DHT22;8550;52.596;13.320;2022-12-10T00:47:43;-0.80;99.90
16867;DHT22;8550;52.596;13.320;2022-12-10T00:52:47;-0.80;99.90
16867;DHT22;8550;52.596;13.320;2022-12-10T00:57:48;-0.80;99.90
16867;DHT22;8550;52.596;13.320;2022-12-10T01:02:50;-0.80;99.90
16867;DHT22;8550;52.596;13.320;2022-12-10T01:07:54;-0.80;99.90
16867;DHT22;8550;52.596;13.320;2022-12-10T01:12:56;-0.80;99.90
16867;DHT22;8550;52.596;13.320;2022-12-10T01:17:58;-0.80;99.90
16867;DHT22;8550;52.596;13.320;2022-12-10T01:23:01;-0.80;99.90
16867;DHT22;8550;52.596;13.320;2022-12-10T01:28:03;-0.90;99.90
16867;DHT22;8550;52.596;13.320;2022-12-10T01:33:05;-1.00;99.90
16867;DHT22;8550;52.596;13.320;2022-12-10T01:38:08;-1.00;99.90
16867;DHT22;8550;52.596;13.320;2022-12-10T01:43:12;-1.10;99.90
16867;DHT22;8550;52.596;13.320;2022-12-10T01:48:15;-1.00;99.90
16867;DHT22;8550;52.596;13.320;2022-12-10T01:53:19;-1.10;99.90
16867;DHT22;8550;52.596;13.320;2022-12-10T01:58:21;-1.10;99.90
16867;DHT22;8550;52.596;13.320;2022-12-10T02:03:34;-1.20;99.90
16867;DHT22;8550;52.596;13.320;2022-12-10T02:08:44;-1.20;99.90
16867;DHT22;8550;52.596;13.320;2022-12-10T02:13:53;-1.30;99.90
16867;DHT22;8550;52.596;13.320;2022-12-10T02:19:00;-1.40;99.90
16867;DHT22;8550;52.596;13.320;2022-12-10T02:24:09;-1.40;99.90
16867;DHT22;8550;52.596;13.320;2022-12-10T02:29:16;-1.50;99.90
16867;DHT22;8550;52.596;13.320;2022-12-10T02:34:19;-1.50;99.90
16867;DHT22;8550;52.596;13.320;2022-12-10T02:39:26;-1.50;99.90
16867;DHT22;8550;52.596;13.320;2022-12-10T02:44:31;-1.60;99.90
16867;DHT22;8550;52.596;13.320;2022-12-10T02:49:35;-1.60;99.90
16867;DHT22;8550;52.596;13.320;2022-12-10T02:54:40;-1.60;99.90
16867;DHT22;8550;52.596;13.320;2022-12-10T02:59:56;-1.60;99.90
16867;DHT22;8550;52.596;13.320;2022-12-10T03:05:03;-1.50;99.90
16867;DHT22;8550;52.596;13.320;2022-12-10T03:10:09;-1.50;99.90
16867;DHT22;8550;52.596;13.320;2022-12-10T03:15:16;-1.40;99.90
16867;DHT22;8550;52.596;13.320;2022-12-10T03:20:20;-1.40;99.90
16867;DHT22;8550;52.596;13.320;2022-12-10T03:25:26;-1.30;99.90
16867;DHT22;8550;52.596;13.320;2022-12-10T03:30:32;-1.40;99.90
16867;DHT22;8550;52.596;13.320;2022-12-10T03:35:35;-1.30;99.90
16867;DHT22;8550;52.596;13.320;2022-12-10T03:40:37;-1.10;99.90
16867;DHT22;8550;52.596;13.320;2022-12-10T03:45:41;-1.00;99.90
16867;DHT22;8550;52.596;13.320;2022-12-10T03:50:42;-1.10;99.90
16867;DHT22;8550;52.596;13.320;2022-12-10T03:55:44;-1.00;99.90
16867;DHT22;8550;52.596;13.320;2022-12-10T04:00:48;-0.90;99.90
16867;DHT22;8550;52.596;13.320;2022-12-10T04:05:50;-0.90;99.90
16867;DHT22;8550;52.596;13.320;2022-12-10T04:10:52;-0.80;99.90
16867;DHT22;8550;52.596;13.320;2022-12-10T04:15:56;-0.80;99.90
16867;DHT22;8550;52.596;13.320;2022-12-10T04:21:28;-0.80;99.90
16867;DHT22;8550;52.596;13.320;2022-12-10T04:26:48;-0.70;99.90
16867;DHT22;8550;52.596;13.320;2022-12-10T04:31:57;-0.70;99.90
16867;DHT22;8550;52.596;13.320;2022-12-10T04:37:01;-0.60;99.90
16867;DHT22;8550;52.596;13.320;2022-12-10T04:42:04;-0.60;99.90
16867;DHT22;8550;52.596;13.320;2022-12-10T04:47:08;-0.50;99.90
16867;DHT22;8550;52.596;13.320;2022-12-10T04:52:13;-0.50;99.90
16867;DHT22;8550;52.596;13.320;2022-12-10T04:57:15;-0.60;99.90
16867;DHT22;8550;52.596;13.320;2022-12-10T05:02:18;-0.60;99.90
16867;DHT22;8550;52.596;13.320;2022-12-10T05:07:20;-0.60;99.90
16867;DHT22;8550;52.596;13.320;2022-12-10T05:12:22;-0.70;99.90
16867;DHT22;8550;52.596;13.320;2022-12-10T05:17:25;-0.60;99.90
16867;DHT22;8550;52.596;13.320;2022-12-10T05:22:27;-0.60;99.90
16867;DHT22;8550;52.596;13.320;2022-12-10T05:27:47;-0.60;99.90
16867;DHT22;8550;52.596;13.320;2022-12-10T05:32:50;-0.60;99.90
16867;DHT22;8550;52.596;13.320;2022-12-10T05:37:52;-0.70;99.90
16867;DHT22;8550;52.596;13.320;2022-12-10T05:42:54;-0.60;99.90
16867;DHT22;8550;52.596;13.320;2022-12-10T05:47:57;-0.60;99.90
16867;DHT22;8550;52.596;13.320;2022-12-10T05:52:59;-0.50;99.90
16867;DHT22;8550;52.596;13.320;2022-12-10T05:58:01;-0.50;99.90
16867;DHT22;8550;52.596;13.320;2022-12-10T06:03:04;-0.40;99.90
16867;DHT22;8550;52.596;13.320;2022-12-10T06:08:06;-0.50;99.90
16867;DHT22;8550;52.596;13.320;2022-12-10T06:13:08;-0.60;99.90
16867;DHT22;8550;52.596;13.320;2022-12-10T06:18:13;-0.60;99.90
16867;DHT22;8550;52.596;13.320;2022-12-10T06:23:15;-0.60;99.90
16867;DHT22;8550;52.596;13.320;2022-12-10T06:28:17;-0.50;99.90
16867;DHT22;8550;52.596;13.320;2022-12-10T06:33:20;-0.50;99.90
16867;DHT22;8550;52.596;13.320;2022-12-10T06:38:23;-0.60;99.90
16867;DHT22;8550;52.596;13.320;2022-12-10T06:43:27;-0.60;99.90
16867;DHT22;8550;52.596;13.320;2022-12-10T06:48:31;-0.70;99.90
16867;DHT22;8550;52.596;13.320;2022-12-10T06:53:34;-0.80;99.90
16867;DHT22;8550;52.596;13.320;2022-12-10T06:58:37;-0.80;99.90
16867;DHT22;8550;52.596;13.320;2022-12-10T07:03:43;-0.80;99.90
16867;DHT22;8550;52.596;13.320;2022-12-10T07:08:45;-0.80;99.90
16867;DHT22;8550;52.596;13.320;2022-12-10T07:13:47;-0.90;99.90
16867;DHT22;8550;52.596;13.320;2022-12-10T07:18:58;-0.90;99.90
16867;DHT22;8550;52.596;13.320;2022-12-10T07:24:03;-0.80;99.90
16867;DHT22;8550;52.596;13.320;2022-12-10T07:29:07;-0.80;99.90
16867;DHT22;8550;52.596;13.320;2022-12-10T07:34:12;-0.80;99.90
16867;DHT22;8550;52.596;13.320;2022-12-10T07:39:15;-0.80;99.90
16867;DHT22;8550;52.596;13.320;2022-12-10T07:44:18;-0.60;99.90
16867;DHT22;8550;52.596;13.320;2022-12-10T07:49:24;-0.70;99.90
16867;DHT22;8550;52.596;13.320;2022-12-10T07:54:25;-0.80;99.90
16867;DHT22;8550;52.596;13.320;2022-12-10T07:59:27;-0.70;99.90
16867;DHT22;8550;52.596;13.320;2022-12-10T08:04:31;-0.50;99.90
16867;DHT22;8550;52.596;13.320;2022-12-10T08:09:33;-0.50;99.90
16867;DHT22;8550;52.596;13.320;2022-12-10T08:14:35;-0.50;99.90
16867;DHT22;8550;52.596;13.320;2022-12-10T08:19:39;-0.50;99.90
16867;DHT22;8550;52.596;13.320;2022-12-10T08:24:40;-0.40;99.90
16867;DHT22;8550;52.596;13.320;2022-12-10T08:29:42;-0.50;99.90
16867;DHT22;8550;52.596;13.320;2022-12-10T08:34:46;-0.60;99.90
16867;DHT22;8550;52.596;13.320;2022-12-10T08:39:48;-0.50;99.90
16867;DHT22;8550;52.596;13.320;2022-12-10T08:44:49;-0.50;99.90
16867;DHT22;8550;52.596;13.320;2022-12-10T08:49:53;-0.40;99.90
16867;DHT22;8550;52.596;13.320;2022-12-10T08:54:55;-0.50;99.90
16867;DHT22;8550;52.596;13.320;2022-12-10T08:59:57;-0.30;99.90
16867;DHT22;8550;52.596;13.320;2022-12-10T09:05:00;-0.40;99.90
16867;DHT22;8550;52.596;13.320;2022-12-10T09:10:04;-0.40;99.90
16867;DHT22;8550;52.596;13.320;2022-12-10T09:15:09;-0.30;99.90
16867;DHT22;8550;52.596;13.320;2022-12-10T09:20:14;-0.20;99.90
16867;DHT22;8550;52.596;13.320;2022-12-10T09:25:17;-0.20;99.90
16867;DHT22;8550;52.596;13.320;2022-12-10T09:30:21;0.00;99.90
16867;DHT22;8550;52.596;13.320;2022-12-10T09:35:25;0.00;99.90
16867;DHT22;8550;52.596;13.320;2022-12-10T09:40:32;0.00;99.90
16867;DHT22;8550;52.596;13.320;2022-12-10T09:45:42;-0.10;99.90
16867;DHT22;8550;52.596;13.320;2022-12-10T09:50:50;0.10;99.90
16867;DHT22;8550;52.596;13.320;2022-12-10T09:55:55;0.10;99.90
16867;DHT22;8550;52.596;13.320;2022-12-10T10:00:59;0.10;99.90
16867;DHT22;8550;52.596;13.320;2022-12-10T10:06:03;0.20;99.90
16867;DHT22;8550;52.596;13.320;2022-12-10T10:11:08;0.30;99.90
16867;DHT22;8550;52.596;13.320;2022-12-10T10:16:21;0.40;99.90
16867;DHT22;8550;52.596;13.320;2022-12-10T10:21:27;0.60;99.90
16867;DHT22;8550;52.596;13.320;2022-12-10T10:26:29;0.50;99.90
16867;DHT22;8550;52.596;13.320;2022-12-10T10:31:33;0.50;99.90
16867;DHT22;8550;52.596;13.320;2022-12-10T10:36:38;0.40;99.90
16867;DHT22;8550;52.596;13.320;2022-12-10T10:41:40;0.20;99.90
16867;DHT22;8550;52.596;13.320;2022-12-10T10:46:42;0.30;99.90
16867;DHT22;8550;52.596;13.320;2022-12-10T10:51:47;0.60;99.90
16867;DHT22;8550;52.596;13.320;2022-12-10T10:56:49;0.40;99.90
16867;DHT22;8550;52.596;13.320;2022-12-10T11:01:52;0.50;99.90
16867;DHT22;8550;52.596;13.320;2022-12-10T11:07:00;0.30;99.90
16867;DHT22;8550;52.596;13.320;2022-12-10T11:16:21;0.50;99.90
16867;DHT22;8550;52.596;13.320;2022-12-10T11:21:23;0.70;99.90
16867;DHT22;8550;52.596;13.320;2022-12-10T11:26:42;0.60;99.90
16867;DHT22;8550;52.596;13.320;2022-12-10T11:31:57;0.70;99.90
16867;DHT22;8550;52.596;13.320;2022-12-10T11:37:09;0.70;99.90
16867;DHT22;8550;52.596;13.320;2022-12-10T11:42:17;0.70;99.90
16867;DHT22;8550;52.596;13.320;2022-12-10T11:47:39;0.50;99.90
16867;DHT22;8550;52.596;13.320;2022-12-10T11:52:58;0.40;99.90
16867;DHT22;8550;52.596;13.320;2022-12-10T11:58:17;0.30;99.90
16867;DHT22;8550;52.596;13.320;2022-12-10T12:03:44;0.30;99.90
16867;DHT22;8550;52.596;13.320;2022-12-10T12:08:53;0.40;99.90
16867;DHT22;8550;52.596;13.320;2022-12-10T12:14:06;0.30;99.90
16867;DHT22;8550;52.596;13.320;2022-12-10T12:19:14;0.30;99.90
16867;DHT22;8550;52.596;13.320;2022-12-10T12:24:21;0.30;99.90
16867;DHT22;8550;52.596;13.320;2022-12-10T12:29:27;0.40;99.90
16867;DHT22;8550;52.596;13.320;2022-12-10T12:34:43;0.30;99.90
16867;DHT22;8550;52.596;13.320;2022-12-10T12:39:52;0.40;99.90
16867;DHT22;8550;52.596;13.320;2022-12-10T12:45:01;0.30;99.90
16867;DHT22;8550;52.596;13.320;2022-12-10T12:50:24;0.30;99.90
16867;DHT22;8550;52.596;13.320;2022-12-10T12:55:31;0.30;99.90
16867;DHT22;8550;52.596;13.320;2022-12-10T13:00:35;0.40;99.90
16867;DHT22;8550;52.596;13.320;2022-12-10T13:05:40;0.30;99.90
16867;DHT22;8550;52.596;13.320;2022-12-10T13:10:49;0.20;99.90
16867;DHT22;8550;52.596;13.320;2022-12-10T13:15:52;0.20;99.90
16867;DHT22;8550;52.596;13.320;2022-12-10T13:21:27;0.20;99.90
16867;DHT22;8550;52.596;13.320;2022-12-10T13:26:30;0.10;99.90
16867;DHT22;8550;52.596;13.320;2022-12-10T13:31:34;0.10;99.90
16867;DHT22;8550;52.596;13.320;2022-12-10T13:42:32;0.20;99.90
16867;DHT22;8550;52.596;13.320;2022-12-10T13:47:54;0.10;99.90
16867;DHT22;8550;52.596;13.320;2022-12-10T13:53:03;0.20;99.90
16867;DHT22;8550;52.596;13.320;2022-12-10T13:58:23;0.20;99.90
16867;DHT22;8550;52.596;13.320;2022-12-10T14:03:46;0.20;99.90
16867;DHT22;8550;52.596;13.320;2022-12-10T14:09:04;0.10;99.90
16867;DHT22;8550;52.596;13.320;2022-12-10T14:14:13;0.10;99.90
16867;DHT22;8550;52.596;13.320;2022-12-10T14:19:18;0.50;99.90
16867;DHT22;8550;52.596;13.320;2022-12-10T14:24:30;0.30;99.90
16867;DHT22;8550;52.596;13.320;2022-12-10T14:29:33;0.20;99.90
16867;DHT22;8550;52.596;13.320;2022-12-10T14:34:36;0.20;99.90
16867;DHT22;8550;52.596;13.320;2022-12-10T14:39:40;0.10;99.90
16867;DHT22;8550;52.596;13.320;2022-12-10T14:44:42;0.10;99.90
16867;DHT22;8550;52.596;13.320;2022-12-10T14:49:46;0.10;99.90
16867;DHT22;8550;52.596;13.320;2022-12-10T14:54:50;0.00;99.90
16867;DHT22;8550;52.596;13.320;2022-12-10T14:59:59;0.00;99.90
16867;DHT22;8550;52.596;13.320;2022-12-10T15:05:10;0.00;99.90
16867;DHT22;8550;52.596;13.320;2022-12-10T15:10:18;-0.10;99.90
16867;DHT22;8550;52.596;13.320;2022-12-10T15:15:27;-0.10;99.90
16867;DHT22;8550;52.596;13.320;2022-12-10T15:20:36;-0.10;99.90
16867;DHT22;8550;52.596;13.320;2022-12-10T15:25:45;-0.10;99.90
16867;DHT22;8550;52.596;13.320;2022-12-10T15:30:47;-0.10;99.90
16867;DHT22;8550;52.596;13.320;2022-12-10T15:35:54;-0.10;99.90
16867;DHT22;8550;52.596;13.320;2022-12-10T15:41:22;-0.20;99.90
16867;DHT22;8550;52.596;13.320;2022-12-10T15:46:24;-0.10;99.90
16867;DHT22;8550;52.596;13.320;2022-12-10T15:51:27;0.20;99.90
16867;DHT22;8550;52.596;13.320;2022-12-10T15:56:30;0.10;99.90
16867;DHT22;8550;52.596;13.320;2022-12-10T16:01:33;0.10;99.90
16867;DHT22;8550;52.596;13.320;2022-12-10T16:06:35;0.00;99.90
16867;DHT22;8550;52.596;13.320;2022-12-10T16:11:38;-0.10;99.90
16867;DHT22;8550;52.596;13.320;2022-12-10T16:16:41;-0.10;99.90
16867;DHT22;8550;52.596;13.320;2022-12-10T16:21:43;0.00;99.90
16867;DHT22;8550;52.596;13.320;2022-12-10T16:26:47;-0.10;99.90
16867;DHT22;8550;52.596;13.320;2022-12-10T16:31:50;-0.20;99.90
16867;DHT22;8550;52.596;13.320;2022-12-10T16:36:52;-0.10;99.90
16867;DHT22;8550;52.596;13.320;2022-12-10T16:41:55;-0.10;99.90
16867;DHT22;8550;52.596;13.320;2022-12-10T16:46:58;0.10;99.90
16867;DHT22;8550;52.596;13.320;2022-12-10T16:52:00;0.00;99.90
16867;DHT22;8550;52.596;13.320;2022-12-10T16:57:10;-0.10;99.90
16867;DHT22;8550;52.596;13.320;2022-12-10T17:02:14;-0.10;99.90
16867;DHT22;8550;52.596;13.320;2022-12-10T17:07:17;-0.10;99.90
16867;DHT22;8550;52.596;13.320;2022-12-10T17:12:21;-0.10;99.90
16867;DHT22;8550;52.596;13.320;2022-12-10T17:17:23;-0.20;99.90
16867;DHT22;8550;52.596;13.320;2022-12-10T17:22:25;-0.10;99.90
16867;DHT22;8550;52.596;13.320;2022-12-10T17:27:29;-0.10;99.90
16867;DHT22;8550;52.596;13.320;2022-12-10T17:32:31;-0.10;99.90
16867;DHT22;8550;52.596;13.320;2022-12-10T17:37:33;0.00;99.90
16867;DHT22;8550;52.596;13.320;2022-12-10T17:42:36;-0.10;99.90
16867;DHT22;8550;52.596;13.320;2022-12-10T17:47:38;-0.20;99.90
16867;DHT22;8550;52.596;13.320;2022-12-10T17:52:40;-0.20;99.90
16867;DHT22;8550;52.596;13.320;2022-12-10T17:57:44;-0.20;99.90
16867;DHT22;8550;52.596;13.320;2022-12-10T18:02:48;-0.10;99.90
16867;DHT22;8550;52.596;13.320;2022-12-10T18:07:50;-0.10;99.90
16867;DHT22;8550;52.596;13.320;2022-12-10T18:12:54;0.00;99.90
16867;DHT22;8550;52.596;13.320;2022-12-10T18:17:56;-0.10;99.90
16867;DHT22;8550;52.596;13.320;2022-12-10T18:23:00;0.00;99.90
16867;DHT22;8550;52.596;13.320;2022-12-10T18:28:14;-0.10;99.90
16867;DHT22;8550;52.596;13.320;2022-12-10T18:33:17;-0.20;99.90
16867;DHT22;8550;52.596;13.320;2022-12-10T18:38:19;-0.10;99.90
16867;DHT22;8550;52.596;13.320;2022-12-10T18:43:22;-0.20;99.90
16867;DHT22;8550;52.596;13.320;2022-12-10T18:48:24;-0.20;99.90
16867;DHT22;8550;52.596;13.320;2022-12-10T18:53:26;-0.30;99.90
16867;DHT22;8550;52.596;13.320;2022-12-10T18:58:30;-0.30;99.90
16867;DHT22;8550;52.596;13.320;2022-12-10T19:03:32;-0.30;99.90
16867;DHT22;8550;52.596;13.320;2022-12-10T19:08:34;-0.30;99.90
16867;DHT22;8550;52.596;13.320;2022-12-10T19:13:37;-0.30;99.90
16867;DHT22;8550;52.596;13.320;2022-12-10T19:18:39;-0.40;99.90
16867;DHT22;8550;52.596;13.320;2022-12-10T19:23:41;-0.40;99.90
16867;DHT22;8550;52.596;13.320;2022-12-10T19:28:45;-0.50;99.90
16867;DHT22;8550;52.596;13.320;2022-12-10T19:33:47;-0.50;99.90
16867;DHT22;8550;52.596;13.320;2022-12-10T19:38:49;-0.50;99.90
16867;DHT22;8550;52.596;13.320;2022-12-10T19:43:52;-0.40;99.90
16867;DHT22;8550;52.596;13.320;2022-12-10T19:48:54;-0.50;99.90
16867;DHT22;8550;52.596;13.320;2022-12-10T19:53:56;-0.50;99.90
16867;DHT22;8550;52.596;13.320;2022-12-10T19:59:02;-0.60;99.90
16867;DHT22;8550;52.596;13.320;2022-12-10T20:04:04;-0.50;99.90
16867;DHT22;8550;52.596;13.320;2022-12-10T20:09:12;-0.60;99.90
16867;DHT22;8550;52.596;13.320;2022-12-10T20:14:18;-0.70;99.90
16867;DHT22;8550;52.596;13.320;2022-12-10T20:19:22;-0.70;99.90
16867;DHT22;8550;52.596;13.320;2022-12-10T20:24:24;-0.80;99.90
16867;DHT22;8550;52.596;13.320;2022-12-10T20:29:28;-0.70;99.90
16867;DHT22;8550;52.596;13.320;2022-12-10T20:34:29;-0.70;99.90
16867;DHT22;8550;52.596;13.320;2022-12-10T20:39:32;-0.70;99.90
16867;DHT22;8550;52.596;13.320;2022-12-10T20:44:36;-0.80;99.90
16867;DHT22;8550;52.596;13.320;2022-12-10T20:49:38;-0.80;99.90
16867;DHT22;8550;52.596;13.320;2022-12-10T20:54:40;-0.80;99.90
16867;DHT22;8550;52.596;13.320;2022-12-10T20:59:45;-0.70;99.90
16867;DHT22;8550;52.596;13.320;2022-12-10T21:04:48;-0.70;99.90
16867;DHT22;8550;52.596;13.320;2022-12-10T21:09:50;-0.70;99.90
16867;DHT22;8550;52.596;13.320;2022-12-10T21:14:54;-0.80;99.90
16867;DHT22;8550;52.596;13.320;2022-12-10T21:19:56;-0.80;99.90
16867;DHT22;8550;52.596;13.320;2022-12-10T21:24:58;-0.80;99.90
16867;DHT22;8550;52.596;13.320;2022-12-10T21:30:01;-0.90;99.90
16867;DHT22;8550;52.596;13.320;2022-12-10T21:35:04;-0.90;99.90
16867;DHT22;8550;52.596;13.320;2022-12-10T21:40:06;-0.80;99.90
16867;DHT22;8550;52.596;13.320;2022-12-10T21:45:10;-0.80;99.90
16867;DHT22;8550;52.596;13.320;2022-12-10T21:50:12;-0.80;99.90
16867;DHT22;8550;52.596;13.320;2022-12-10T21:55:15;-0.80;99.90
16867;DHT22;8550;52.596;13.320;2022-12-10T22:00:18;-0.90;99.90
16867;DHT22;8550;52.596;13.320;2022-12-10T22:05:20;-0.80;99.90
16867;DHT22;8550;52.596;13.320;2022-12-10T22:10:22;-0.80;99.90
16867;DHT22;8550;52.596;13.320;2022-12-10T22:15:25;-0.80;99.90
16867;DHT22;8550;52.596;13.320;2022-12-10T22:20:27;-0.80;99.90
16867;DHT22;8550;52.596;13.320;2022-12-10T22:25:29;-0.80;99.90
16867;DHT22;8550;52.596;13.320;2022-12-10T22:30:33;-1.00;99.90
16867;DHT22;8550;52.596;13.320;2022-12-10T22:35:37;-0.90;99.90
16867;DHT22;8550;52.596;13.320;2022-12-10T22:40:40;-0.90;99.90
16867;DHT22;8550;52.596;13.320;2022-12-10T22:45:44;-0.90;99.90
16867;DHT22;8550;52.596;13.320;2022-12-10T22:50:49;-0.90;99.90
16867;DHT22;8550;52.596;13.320;2022-12-10T22:55:56;-0.80;99.90
16867;DHT22;8550;52.596;13.320;2022-12-10T23:01:00;-0.80;99.90
16867;DHT22;8550;52.596;13.320;2022-12-10T23:06:02;-0.80;99.90
16867;DHT22;8550;52.596;13.320;2022-12-10T23:11:04;-1.00;99.90
16867;DHT22;8550;52.596;13.320;2022-12-10T23:16:10;-1.00;99.90
16867;DHT22;8550;52.596;13.320;2022-12-10T23:21:14;-0.90;99.90
16867;DHT22;8550;52.596;13.320;2022-12-10T23:26:17;-0.80;99.90
16867;DHT22;8550;52.596;13.320;2022-12-10T23:31:20;-0.80;99.90
16867;DHT22;8550;52.596;13.320;2022-12-10T23:36:23;-0.70;99.90
16867;DHT22;8550;52.596;13.320;2022-12-10T23:41:25;-0.80;99.90
16867;DHT22;8550;52.596;13.320;2022-12-10T23:46:29;-0.80;99.90
16867;DHT22;8550;52.596;13.320;2022-12-10T23:51:31;-0.60;99.90
16867;DHT22;8550;52.596;13.320;2022-12-10T23:56:33;-0.70;99.90
